Time;durP1;ratioP1;P1;durP2;ratioP2;P2;SDS_P1;SDS_P2;PMS_P1;PMS_P2;Temp;Humidity;BMP_temperature;BMP_pressure;BME280_temperature;BME280_humidity;BME280_pressure;Samples;Min_cycle;Max_cycle;Signal;HPM_P1;HPM_P2
2022/08/14 00:02:16;;;;;;;8.02;7.22;;;24.90;99.90;;;;;;4991539;28;20234;-71
2022/08/14 00:04:43;;;;;;;7.90;7.35;;;24.90;99.90;;;;;;4990507;28;20233;-70
2022/08/14 00:07:11;;;;;;;8.77;8.07;;;24.90;99.90;;;;;;4990188;28;20202;-69
2022/08/14 00:09:38;;;;;;;8.55;7.70;;;24.80;99.90;;;;;;4990222;28;20206;-68
2022/08/14 00:12:06;;;;;;;8.52;7.72;;;24.80;99.90;;;;;;5002481;28;20226;-68
2022/08/14 00:14:34;;;;;;;8.88;7.97;;;24.80;99.90;;;;;;4990614;28;20273;-67
2022/08/14 00:17:01;;;;;;;7.80;7.10;;;24.80;99.90;;;;;;4989923;28;20202;-68
2022/08/14 00:19:28;;;;;;;8.05;7.38;;;24.70;99.90;;;;;;5003609;28;20209;-68
2022/08/14 00:21:55;;;;;;;7.40;6.80;;;24.80;99.90;;;;;;5008733;28;20227;-68
2022/08/14 00:24:22;;;;;;;7.10;6.60;;;24.70;99.90;;;;;;5009588;28;20205;-67
2022/08/14 00:26:49;;;;;;;8.35;6.88;;;24.70;99.90;;;;;;5009234;28;20217;-68
2022/08/14 00:29:16;;;;;;;7.07;6.47;;;24.70;99.90;;;;;;5009046;28;20209;-68
2022/08/14 00:31:44;;;;;;;6.60;6.05;;;24.70;99.90;;;;;;5008768;28;20206;-68
2022/08/14 00:34:11;;;;;;;6.57;5.97;;;24.70;99.90;;;;;;5008961;28;20692;-68
2022/08/14 00:36:38;;;;;;;6.10;5.60;;;24.70;99.90;;;;;;5008089;28;20209;-68
2022/08/14 00:39:05;;;;;;;7.85;6.13;;;24.70;99.90;;;;;;4989283;28;20665;-67
2022/08/14 00:41:32;;;;;;;6.32;5.93;;;24.60;99.90;;;;;;4994777;28;20231;-67
2022/08/14 00:43:59;;;;;;;6.15;5.75;;;24.60;99.90;;;;;;5008643;28;20201;-67
2022/08/14 00:46:26;;;;;;;6.47;5.60;;;24.60;99.90;;;;;;5008943;28;20304;-67
2022/08/14 00:48:54;;;;;;;6.30;5.75;;;24.60;99.90;;;;;;5008788;28;20245;-67
2022/08/14 00:51:21;;;;;;;5.82;5.43;;;24.60;99.90;;;;;;5008758;28;20657;-68
2022/08/14 00:53:49;;;;;;;6.18;5.68;;;24.60;99.90;;;;;;5008693;28;20236;-68
2022/08/14 00:56:18;;;;;;;6.32;5.93;;;24.50;99.90;;;;;;5008736;28;20202;-69
2022/08/14 00:58:46;;;;;;;6.40;5.90;;;24.50;99.90;;;;;;5008740;28;20217;-69
2022/08/14 01:01:13;;;;;;;6.60;5.95;;;24.40;99.90;;;;;;5008310;28;20249;-69
2022/08/14 01:03:41;;;;;;;7.07;5.95;;;24.40;99.90;;;;;;5008471;28;20219;-69
2022/08/14 01:06:15;;;;;;;6.15;5.55;;;24.40;99.90;;;;;;5008312;28;20774;-70
2022/08/14 01:08:43;;;;;;;5.93;5.53;;;24.40;99.90;;;;;;5008610;28;20194;-70
2022/08/14 01:11:14;;;;;;;6.45;5.85;;;24.40;99.90;;;;;;5008381;28;20233;-69
2022/08/14 01:13:44;;;;;;;5.80;5.35;;;24.40;99.90;;;;;;5008706;28;20222;-69
2022/08/14 01:16:13;;;;;;;6.13;5.63;;;24.30;99.90;;;;;;5008409;28;20690;-70
2022/08/14 01:21:31;;;;;;;6.50;6.00;;;24.40;99.90;;;;;;5008308;28;20250;-69
2022/08/14 01:23:58;;;;;;;6.47;6.00;;;24.30;99.90;;;;;;5007952;28;20259;-69
2022/08/14 01:26:27;;;;;;;5.93;5.53;;;24.30;99.90;;;;;;5008321;28;20205;-69
2022/08/14 01:28:56;;;;;;;6.28;5.70;;;24.30;99.90;;;;;;5008009;28;20213;-69
2022/08/14 01:31:24;;;;;;;5.80;5.40;;;24.20;99.90;;;;;;5008186;28;20224;-69
2022/08/14 01:33:55;;;;;;;6.30;5.78;;;24.20;99.90;;;;;;5008179;28;20682;-70
2022/08/14 01:36:23;;;;;;;6.88;6.28;;;24.20;99.90;;;;;;5008105;28;20225;-70
2022/08/14 01:38:54;;;;;;;6.50;5.95;;;24.20;99.90;;;;;;5008191;28;20206;-70
2022/08/14 01:41:22;;;;;;;6.60;6.00;;;24.20;99.90;;;;;;5008106;28;20221;-70
2022/08/14 01:43:59;;;;;;;6.78;6.18;;;24.20;99.90;;;;;;5007749;28;20575;-68
2022/08/14 01:46:28;;;;;;;6.72;6.03;;;24.20;99.90;;;;;;5007683;28;20563;-68
2022/08/14 01:48:56;;;;;;;7.45;5.93;;;24.10;99.90;;;;;;5007227;28;20213;-68
2022/08/14 01:51:25;;;;;;;6.45;5.97;;;24.10;99.90;;;;;;5008115;28;20224;-69
2022/08/14 01:53:55;;;;;;;6.55;6.03;;;24.10;99.90;;;;;;5007876;28;20367;-68
2022/08/14 01:56:32;;;;;;;6.95;6.07;;;24.20;99.90;;;;;;5008026;28;20288;-70
2022/08/14 01:58:59;;;;;;;8.20;6.30;;;24.10;99.90;;;;;;5007619;28;20224;-70
2022/08/14 02:01:26;;;;;;;6.88;6.28;;;24.10;99.90;;;;;;5007965;28;20217;-70
2022/08/14 02:03:53;;;;;;;5.90;5.55;;;24.10;99.90;;;;;;5008032;28;20205;-70
2022/08/14 02:06:20;;;;;;;7.05;6.35;;;24.10;99.90;;;;;;5008066;28;20228;-69
2022/08/14 02:08:47;;;;;;;6.63;6.13;;;24.20;99.90;;;;;;5007352;28;20681;-69
2022/08/14 02:11:21;;;;;;;6.30;5.82;;;24.20;99.90;;;;;;5007600;28;20229;-69
2022/08/14 02:13:51;;;;;;;6.70;6.30;;;24.10;99.90;;;;;;5007760;28;20575;-69
2022/08/14 02:16:22;;;;;;;6.45;5.88;;;24.10;99.90;;;;;;5007890;28;20565;-69
2022/08/14 02:18:49;;;;;;;7.05;6.55;;;24.20;99.90;;;;;;5007812;28;20579;-69
2022/08/14 02:21:17;;;;;;;7.60;5.90;;;24.10;99.90;;;;;;5007607;28;20333;-69
2022/08/14 02:23:46;;;;;;;7.13;6.38;;;24.10;99.90;;;;;;5007734;28;20623;-70
2022/08/14 02:26:20;;;;;;;6.68;6.05;;;24.20;99.90;;;;;;5007816;28;20201;-70
2022/08/14 02:28:49;;;;;;;6.75;6.20;;;24.20;99.90;;;;;;5007718;28;20292;-69
2022/08/14 02:31:17;;;;;;;8.52;6.38;;;24.10;99.90;;;;;;5007544;28;20759;-69
2022/08/14 02:33:44;;;;;;;6.53;5.93;;;24.10;99.90;;;;;;5007709;28;20664;-70
2022/08/14 02:36:11;;;;;;;6.70;6.20;;;24.10;99.90;;;;;;5007870;28;20202;-69
2022/08/14 02:38:39;;;;;;;7.30;5.85;;;24.10;99.90;;;;;;5007882;28;20626;-70
2022/08/14 02:41:09;;;;;;;6.72;6.32;;;24.10;99.90;;;;;;5007660;28;20241;-70
2022/08/14 02:43:38;;;;;;;6.63;6.13;;;24.10;99.90;;;;;;5007552;28;20205;-69
2022/08/14 02:46:09;;;;;;;6.35;5.82;;;24.10;99.90;;;;;;5007624;28;20214;-69
2022/08/14 02:48:38;;;;;;;6.82;6.18;;;24.10;99.90;;;;;;5007796;28;20263;-69
2022/08/14 02:51:11;;;;;;;6.72;6.15;;;24.10;99.90;;;;;;5007461;28;20581;-68
2022/08/14 02:53:43;;;;;;;6.90;5.93;;;24.10;99.90;;;;;;5007830;28;20217;-69
2022/08/14 02:56:14;;;;;;;6.93;6.10;;;24.10;99.90;;;;;;5006902;28;20673;-68
2022/08/14 02:58:45;;;;;;;6.78;5.72;;;24.10;99.90;;;;;;5007297;28;20198;-68
2022/08/14 03:01:13;;;;;;;6.80;6.35;;;24.10;99.90;;;;;;5010008;28;20241;-68
2022/08/14 03:03:40;;;;;;;7.13;6.60;;;24.10;99.90;;;;;;5011008;28;20406;-68
2022/08/14 03:06:09;;;;;;;6.75;6.25;;;24.10;99.90;;;;;;5010847;28;20241;-68
2022/08/14 03:08:36;;;;;;;6.40;5.90;;;24.10;99.90;;;;;;5010993;28;20202;-68
2022/08/14 03:11:08;;;;;;;6.40;5.80;;;24.10;99.90;;;;;;5010389;28;20321;-68
2022/08/14 03:13:35;;;;;;;6.80;6.20;;;24.10;99.90;;;;;;5010754;28;20209;-68
2022/08/14 03:16:09;;;;;;;6.50;6.10;;;24.10;99.90;;;;;;5010773;28;20205;-68
2022/08/14 03:18:40;;;;;;;6.38;5.97;;;24.10;99.90;;;;;;5010446;28;20209;-69
2022/08/14 03:21:10;;;;;;;7.47;6.72;;;24.10;99.90;;;;;;5010497;28;20300;-68
2022/08/14 03:23:37;;;;;;;7.22;6.20;;;24.10;99.90;;;;;;5010474;28;20229;-68
2022/08/14 03:26:08;;;;;;;6.85;6.25;;;24.10;99.90;;;;;;5010142;28;20596;-68
2022/08/14 03:28:37;;;;;;;6.82;6.32;;;24.10;99.90;;;;;;5010519;28;20212;-69
2022/08/14 03:31:09;;;;;;;7.45;6.82;;;24.10;99.90;;;;;;5010422;28;20293;-69
2022/08/14 03:33:39;;;;;;;7.00;6.47;;;24.10;99.90;;;;;;5010063;28;20213;-69
2022/08/14 03:36:11;;;;;;;7.13;6.47;;;24.10;99.90;;;;;;5009889;28;20553;-69
2022/08/14 03:38:41;;;;;;;6.65;6.20;;;24.10;99.90;;;;;;5010236;28;20210;-69
2022/08/14 03:41:15;;;;;;;7.35;6.75;;;24.00;99.90;;;;;;5009458;28;20676;-69
2022/08/14 03:43:42;;;;;;;7.82;7.10;;;24.10;99.90;;;;;;5010155;28;21031;-69
2022/08/14 03:46:12;;;;;;;7.40;6.80;;;24.10;99.90;;;;;;5010093;28;20666;-69
2022/08/14 03:48:39;;;;;;;7.43;6.82;;;24.10;99.90;;;;;;5010142;28;20205;-71
2022/08/14 03:51:12;;;;;;;7.93;7.20;;;24.10;99.90;;;;;;5010122;28;20217;-70
2022/08/14 03:53:40;;;;;;;7.35;6.65;;;24.10;99.90;;;;;;5009997;28;20568;-70
2022/08/14 03:56:11;;;;;;;7.45;6.90;;;24.10;99.90;;;;;;5009393;28;20216;-70
2022/08/14 03:58:41;;;;;;;7.30;6.80;;;24.00;99.90;;;;;;5010371;28;20274;-70
2022/08/14 04:01:08;;;;;;;7.43;6.82;;;24.00;99.90;;;;;;5009623;28;20250;-70
2022/08/14 04:03:36;;;;;;;7.95;7.15;;;24.00;99.90;;;;;;5009992;28;20220;-69
2022/08/14 04:06:07;;;;;;;6.72;6.22;;;24.00;99.90;;;;;;5009766;28;20210;-69
2022/08/14 04:08:36;;;;;;;7.88;7.18;;;24.00;99.90;;;;;;5010112;28;20213;-69
2022/08/14 04:11:06;;;;;;;7.22;6.53;;;24.00;99.90;;;;;;5008855;28;20225;-69
2022/08/14 04:13:35;;;;;;;8.02;6.95;;;23.90;99.90;;;;;;5009299;28;20197;-69
2022/08/14 04:16:04;;;;;;;7.30;6.72;;;23.90;99.90;;;;;;5009474;28;20210;-69
2022/08/14 04:18:31;;;;;;;7.78;7.18;;;23.90;99.90;;;;;;5009358;28;20669;-67
2022/08/14 04:20:59;;;;;;;8.68;7.97;;;23.90;99.90;;;;;;5009282;28;20224;-68
2022/08/14 04:23:26;;;;;;;7.28;6.78;;;23.90;99.90;;;;;;5009392;28;20233;-67
2022/08/14 04:25:53;;;;;;;7.63;7.00;;;23.90;99.90;;;;;;5009163;28;20217;-68
2022/08/14 04:28:21;;;;;;;7.93;7.25;;;23.90;99.90;;;;;;5009453;28;20213;-68
2022/08/14 04:30:48;;;;;;;7.30;6.63;;;23.90;99.90;;;;;;5008854;28;20212;-68
2022/08/14 04:33:15;;;;;;;7.78;7.30;;;23.80;99.90;;;;;;5009132;28;20216;-68
2022/08/14 04:35:42;;;;;;;7.75;7.15;;;23.80;99.90;;;;;;5009582;28;20214;-68
2022/08/14 04:43:40;;;;;;;8.18;7.40;;;23.80;99.90;;;;;;5008997;28;20287;-68
2022/08/14 04:46:11;;;;;;;7.90;7.25;;;23.80;99.90;;;;;;5008851;28;20216;-68
2022/08/14 04:48:37;;;;;;;8.30;7.55;;;23.80;99.90;;;;;;5008876;28;20661;-68
2022/08/14 04:51:10;;;;;;;7.65;7.15;;;23.80;99.90;;;;;;5008713;28;21035;-69
2022/08/14 04:53:42;;;;;;;10.95;7.32;;;23.60;99.90;;;;;;5008836;28;20690;-69
2022/08/14 04:56:09;;;;;;;8.27;7.32;;;23.50;99.90;;;;;;5008616;28;20194;-69
2022/08/14 04:58:37;;;;;;;7.95;7.20;;;23.60;99.90;;;;;;5008628;28;20212;-69
2022/08/14 05:01:09;;;;;;;8.30;7.60;;;23.60;99.90;;;;;;5008488;28;20237;-69
2022/08/14 05:03:37;;;;;;;8.88;8.07;;;23.60;99.90;;;;;;5008997;28;20236;-68
2022/08/14 05:06:09;;;;;;;8.77;8.00;;;23.60;99.90;;;;;;5008553;28;20213;-68
2022/08/14 05:08:39;;;;;;;10.73;7.47;;;23.70;99.90;;;;;;5008627;28;20209;-69
2022/08/14 05:11:07;;;;;;;8.18;7.47;;;23.70;99.90;;;;;;5008462;28;20316;-69
2022/08/14 05:13:35;;;;;;;7.68;7.00;;;23.70;99.90;;;;;;5008902;28;20217;-69
2022/08/14 05:16:06;;;;;;;8.27;7.50;;;23.80;99.90;;;;;;5008397;28;20262;-69
2022/08/14 05:18:35;;;;;;;8.50;7.80;;;23.80;99.90;;;;;;5008528;28;20201;-69
2022/08/14 05:21:07;;;;;;;7.22;6.72;;;23.80;99.90;;;;;;5008272;28;20205;-69
2022/08/14 05:23:35;;;;;;;11.98;7.75;;;23.80;99.90;;;;;;5007499;28;20232;-71
2022/08/14 05:26:11;;;;;;;8.05;7.35;;;23.90;99.90;;;;;;5008127;28;20216;-72
2022/08/14 05:28:43;;;;;;;7.90;7.03;;;23.90;99.90;;;;;;5008371;28;20723;-71
2022/08/14 05:31:11;;;;;;;7.88;7.10;;;24.00;99.90;;;;;;5008238;28;20710;-72
2022/08/14 05:33:38;;;;;;;7.82;7.22;;;24.00;99.90;;;;;;5008030;28;20687;-71
2022/08/14 05:36:08;;;;;;;8.88;8.38;;;24.10;99.90;;;;;;5008330;28;20214;-70
2022/08/14 05:38:36;;;;;;;10.68;8.15;;;24.00;99.90;;;;;;5008354;28;20209;-69
2022/08/14 05:41:10;;;;;;;8.20;7.60;;;24.10;99.90;;;;;;5007590;28;20209;-69
2022/08/14 05:43:38;;;;;;;8.35;7.65;;;24.10;99.90;;;;;;5008260;28;20247;-69
2022/08/14 05:46:10;;;;;;;9.50;8.57;;;24.10;99.90;;;;;;5007760;28;20210;-70
2022/08/14 05:48:37;;;;;;;8.45;7.85;;;24.10;99.90;;;;;;5007907;28;20243;-70
2022/08/14 05:51:09;;;;;;;9.15;7.70;;;24.10;99.90;;;;;;5007825;28;20885;-68
2022/08/14 05:53:36;;;;;;;8.88;7.97;;;24.10;99.90;;;;;;5008097;28;20577;-68
2022/08/14 05:56:07;;;;;;;8.55;7.90;;;24.20;99.90;;;;;;5007638;28;20241;-68
2022/08/14 05:58:34;;;;;;;9.10;8.20;;;24.10;99.90;;;;;;5007772;28;20206;-68
2022/08/14 06:01:01;;;;;;;8.27;7.65;;;24.20;99.90;;;;;;5007464;28;20237;-68
2022/08/14 06:03:28;;;;;;;9.57;8.38;;;24.20;99.90;;;;;;5005875;28;20229;-68
2022/08/14 06:05:56;;;;;;;9.20;8.20;;;24.20;99.90;;;;;;5007059;28;20209;-70
2022/08/14 06:08:24;;;;;;;9.65;8.77;;;24.20;99.90;;;;;;5007766;28;20724;-70
2022/08/14 06:10:52;;;;;;;9.38;8.57;;;24.30;99.90;;;;;;5007352;28;20233;-69
2022/08/14 06:13:21;;;;;;;9.38;8.57;;;24.30;99.90;;;;;;5007804;28;20209;-70
2022/08/14 06:15:49;;;;;;;8.98;8.13;;;24.30;99.90;;;;;;5007403;28;20209;-69
2022/08/14 06:18:16;;;;;;;8.90;8.30;;;24.30;99.90;;;;;;5007980;28;20237;-70
2022/08/14 06:20:43;;;;;;;9.25;8.30;;;24.30;99.90;;;;;;5007590;28;20209;-70
2022/08/14 06:23:10;;;;;;;10.60;8.63;;;24.30;99.90;;;;;;5007673;28;20240;-70
2022/08/14 06:25:37;;;;;;;8.90;8.20;;;24.30;99.90;;;;;;4988136;28;20218;-71
2022/08/14 06:28:04;;;;;;;9.15;8.25;;;24.40;99.90;;;;;;4988444;28;20206;-70
2022/08/14 06:30:34;;;;;;;8.88;8.18;;;24.40;99.90;;;;;;4988007;28;20405;-69
2022/08/14 06:33:01;;;;;;;8.68;7.97;;;24.40;99.90;;;;;;4988638;28;20210;-70
2022/08/14 06:35:28;;;;;;;9.65;8.77;;;24.50;99.90;;;;;;4990139;28;20229;-69
2022/08/14 06:37:57;;;;;;;9.30;8.60;;;24.50;99.90;;;;;;4992080;28;20668;-69
2022/08/14 06:40:26;;;;;;;9.50;8.90;;;24.60;99.90;;;;;;4991595;28;20979;-69
2022/08/14 06:42:53;;;;;;;9.07;8.18;;;24.60;99.90;;;;;;5006292;28;20237;-68
2022/08/14 06:45:20;;;;;;;10.23;7.93;;;24.60;99.90;;;;;;5011674;28;20412;-68
2022/08/14 06:47:48;;;;;;;9.30;8.45;;;24.60;99.90;;;;;;5011356;28;20209;-68
2022/08/14 06:50:17;;;;;;;8.85;8.13;;;24.70;99.90;;;;;;4991902;28;20206;-68
2022/08/14 06:52:45;;;;;;;8.75;8.05;;;24.70;99.90;;;;;;4991850;28;20206;-68
2022/08/14 06:55:13;;;;;;;8.88;7.97;;;24.80;99.90;;;;;;4991251;28;20214;-68
2022/08/14 06:57:42;;;;;;;9.07;8.15;;;24.80;99.90;;;;;;4991634;28;20220;-68
2022/08/14 07:00:11;;;;;;;9.50;8.70;;;24.80;99.90;;;;;;4991107;28;20238;-68
2022/08/14 07:08:12;;;;;;;8.63;7.70;;;24.90;99.90;;;;;;5007930;28;20209;-70
2022/08/14 07:10:42;;;;;;;8.13;7.53;;;25.00;99.90;;;;;;5010445;28;20225;-70
2022/08/14 07:13:09;;;;;;;8.30;7.80;;;25.00;99.90;;;;;;5010679;28;20240;-69
2022/08/14 07:15:36;;;;;;;8.13;7.55;;;25.00;99.90;;;;;;5010944;28;20296;-70
2022/08/14 07:18:04;;;;;;;9.82;7.70;;;25.00;99.90;;;;;;5010613;28;20213;-69
2022/08/14 07:20:33;;;;;;;7.38;6.85;;;25.00;99.90;;;;;;5010700;28;20260;-70
2022/08/14 07:23:00;;;;;;;9.05;8.25;;;25.10;99.90;;;;;;5010580;28;20240;-69
2022/08/14 07:25:28;;;;;;;9.07;7.68;;;25.10;99.90;;;;;;5010426;28;20228;-69
2022/08/14 07:27:55;;;;;;;8.52;7.93;;;25.20;99.90;;;;;;5010333;28;20217;-69
2022/08/14 07:30:23;;;;;;;7.90;7.50;;;25.20;99.90;;;;;;5010571;28;20209;-69
2022/08/14 07:32:49;;;;;;;7.57;7.07;;;25.20;99.90;;;;;;5010478;28;20209;-69
2022/08/14 07:35:16;;;;;;;9.00;8.20;;;25.30;99.90;;;;;;5010381;28;20205;-69
2022/08/14 07:37:48;;;;;;;9.02;8.13;;;25.30;99.90;;;;;;5010562;28;20205;-69
2022/08/14 07:40:14;;;;;;;8.18;7.38;;;25.40;99.90;;;;;;5009721;28;20190;-69
2022/08/14 07:42:41;;;;;;;8.30;7.53;;;25.40;99.90;;;;;;4992881;28;20771;-68
2022/08/14 07:45:09;;;;;;;9.18;8.52;;;25.40;99.90;;;;;;4988370;28;20214;-68
2022/08/14 07:47:40;;;;;;;8.98;8.18;;;25.40;99.90;;;;;;4987306;28;20269;-68
2022/08/14 07:50:13;;;;;;;8.90;8.07;;;25.50;99.90;;;;;;5007087;28;20616;-68
2022/08/14 07:52:41;;;;;;;8.70;7.90;;;25.50;99.90;;;;;;5007875;28;20687;-68
2022/08/14 07:55:10;;;;;;;8.73;8.00;;;25.60;99.90;;;;;;5007842;28;20586;-68
2022/08/14 07:57:39;;;;;;;8.93;8.13;;;25.60;99.90;;;;;;5008427;28;20240;-68
2022/08/14 08:00:10;;;;;;;8.38;7.60;;;25.60;99.90;;;;;;5007858;28;20237;-68
2022/08/14 08:02:40;;;;;;;10.30;8.23;;;25.70;99.90;;;;;;5008180;28;20213;-68
2022/08/14 08:05:08;;;;;;;9.20;8.30;;;25.70;99.90;;;;;;5008400;28;20197;-68
2022/08/14 08:07:37;;;;;;;8.57;7.65;;;25.70;99.90;;;;;;5008406;28;20231;-68
2022/08/14 08:10:29;;;;;;;9.18;8.02;;;25.70;99.90;;;;;;5011024;28;20700;-68
2022/08/14 08:12:57;;;;;;;8.65;7.80;;;25.80;99.90;;;;;;5007367;28;20217;-68
2022/08/14 08:15:24;;;;;;;8.65;7.90;;;25.80;99.90;;;;;;5007814;28;20209;-68
2022/08/14 08:17:51;;;;;;;8.13;7.28;;;25.80;99.90;;;;;;5007695;28;20229;-68
2022/08/14 08:20:19;;;;;;;8.02;7.32;;;25.80;99.90;;;;;;5007718;28;20574;-68
2022/08/14 08:22:46;;;;;;;7.80;7.10;;;25.90;99.90;;;;;;5008055;28;20245;-68
2022/08/14 08:25:13;;;;;;;7.70;7.00;;;25.90;99.90;;;;;;5007481;28;20711;-68
2022/08/14 08:27:40;;;;;;;7.80;7.20;;;25.90;99.90;;;;;;5008335;28;20296;-68
2022/08/14 08:30:10;;;;;;;26.50;8.25;;;26.00;99.90;;;;;;5007625;28;20209;-68
2022/08/14 08:32:42;;;;;;;9.88;6.97;;;26.00;99.90;;;;;;5007674;28;20213;-68
2022/08/14 08:35:17;;;;;;;7.93;7.22;;;26.10;99.90;;;;;;5007137;28;20698;-68
2022/08/14 08:37:44;;;;;;;7.65;6.95;;;26.10;99.90;;;;;;5007435;28;20652;-68
2022/08/14 08:40:21;;;;;;;7.35;6.65;;;26.20;99.90;;;;;;5007251;28;20233;-68
2022/08/14 08:42:48;;;;;;;7.25;6.55;;;26.20;99.90;;;;;;5007419;28;20216;-68
2022/08/14 08:45:20;;;;;;;7.97;7.13;;;26.20;99.90;;;;;;5007689;28;20210;-68
2022/08/14 08:47:47;;;;;;;7.38;6.85;;;26.30;99.90;;;;;;5007618;28;20256;-68
2022/08/14 08:50:19;;;;;;;11.48;7.13;;;26.30;99.90;;;;;;4987703;28;20206;-68
2022/08/14 08:52:54;;;;;;;7.53;6.80;;;26.30;99.90;;;;;;4987241;28;20221;-68
2022/08/14 08:55:26;;;;;;;7.15;6.55;;;26.40;99.90;;;;;;4987347;28;20221;-69
2022/08/14 08:57:57;;;;;;;7.57;6.35;;;26.50;99.90;;;;;;5001667;28;20313;-68
2022/08/14 09:00:26;;;;;;;7.80;7.03;;;26.50;99.90;;;;;;5008340;28;20245;-68
2022/08/14 09:02:56;;;;;;;7.45;6.85;;;26.60;99.90;;;;;;5000381;28;20332;-68
2022/08/14 09:05:23;;;;;;;7.63;7.03;;;26.70;99.90;;;;;;5005487;28;20646;-68
2022/08/14 09:07:52;;;;;;;7.57;6.85;;;26.70;99.90;;;;;;4988834;28;20221;-68
2022/08/14 09:10:19;;;;;;;7.57;6.97;;;26.80;99.90;;;;;;4991699;28;20230;-68
2022/08/14 09:12:47;;;;;;;7.80;7.20;;;26.80;99.90;;;;;;5008685;28;20255;-68
2022/08/14 09:15:14;;;;;;;8.10;7.10;;;26.80;99.90;;;;;;5006433;28;20306;-68
2022/08/14 09:17:43;;;;;;;7.20;6.55;;;26.90;99.90;;;;;;5000147;28;20248;-67
2022/08/14 09:20:12;;;;;;;7.18;6.70;;;26.90;99.90;;;;;;5008144;28;20271;-68
2022/08/14 09:22:40;;;;;;;7.05;6.45;;;27.00;99.90;;;;;;5005323;28;20214;-68
2022/08/14 09:25:07;;;;;;;7.55;6.95;;;27.00;99.90;;;;;;5008527;28;20246;-68
2022/08/14 09:27:34;;;;;;;8.45;6.13;;;27.10;99.90;;;;;;5002885;28;20225;-68
2022/08/14 09:30:01;;;;;;;7.00;6.30;;;27.10;99.90;;;;;;5000850;28;20567;-68
2022/08/14 09:32:38;;;;;;;7.47;6.78;;;27.10;99.90;;;;;;4997409;28;20293;-68
2022/08/14 09:35:16;;;;;;;14.32;7.00;;;27.20;99.90;;;;;;4997985;28;20672;-68
2022/08/14 09:37:55;;;;;;;6.22;5.72;;;27.30;99.90;;;;;;4988118;28;20206;-74
2022/08/14 09:40:33;;;;;;;9.75;6.40;;;27.30;99.90;;;;;;4987521;28;20194;-69
2022/08/14 09:43:08;;;;;;;6.40;5.90;;;27.40;99.90;;;;;;4995591;28;20292;-69
2022/08/14 09:45:41;;;;;;;8.25;6.03;;;27.50;99.90;;;;;;4996258;28;20954;-68
2022/08/14 09:48:15;;;;;;;8.00;6.47;;;27.50;99.90;;;;;;5002484;28;20197;-69
2022/08/14 09:50:48;;;;;;;6.82;6.03;;;27.50;99.90;;;;;;4992993;28;20206;-70
2022/08/14 09:53:18;;;;;;;6.20;5.60;;;27.50;99.90;;;;;;4986427;28;20205;-69
2022/08/14 09:55:45;;;;;;;9.15;6.28;;;27.50;99.90;;;;;;4986373;28;20213;-69
2022/08/14 09:58:14;;;;;;;6.10;5.63;;;27.60;99.90;;;;;;4988265;28;20210;-69
2022/08/14 10:00:46;;;;;;;6.70;5.85;;;27.60;99.90;;;;;;4999628;28;20240;-68
2022/08/14 10:03:24;;;;;;;5.75;5.35;;;27.60;99.90;;;;;;4987668;28;20632;-68
2022/08/14 10:06:08;;;;;;;6.00;5.50;;;27.60;99.90;;;;;;4992686;28;20582;-68
2022/08/14 10:08:44;;;;;;;7.47;6.10;;;27.60;99.90;;;;;;4987197;28;20675;-68
2022/08/14 10:11:18;;;;;;;9.85;5.32;;;27.70;99.90;;;;;;4992678;28;20193;-68
2022/08/14 10:13:46;;;;;;;5.40;5.07;;;27.70;99.90;;;;;;4995025;28;20293;-68
2022/08/14 10:16:13;;;;;;;6.53;5.30;;;27.80;99.90;;;;;;4993755;28;20212;-68
2022/08/14 10:18:41;;;;;;;6.30;5.28;;;27.80;99.60;;;;;;5001613;28;20213;-68
2022/08/14 10:21:16;;;;;;;6.43;5.45;;;27.90;99.20;;;;;;5013893;28;20205;-68
2022/08/14 10:23:48;;;;;;;5.10;4.60;;;28.00;99.00;;;;;;5014493;28;20256;-68
2022/08/14 10:26:17;;;;;;;7.10;5.45;;;28.10;98.90;;;;;;5013641;28;20210;-68
2022/08/14 10:28:46;;;;;;;6.97;4.95;;;28.20;98.50;;;;;;5014260;28;20236;-68
2022/08/14 10:31:19;;;;;;;5.57;5.07;;;28.30;98.40;;;;;;5014346;28;20209;-68
2022/08/14 10:33:59;;;;;;;5.05;4.55;;;28.30;98.20;;;;;;5014434;28;20219;-68
2022/08/14 10:36:31;;;;;;;9.80;4.85;;;28.40;97.80;;;;;;5014392;28;20197;-68
2022/08/14 10:38:59;;;;;;;7.07;4.82;;;28.50;97.70;;;;;;5014110;28;20204;-68
2022/08/14 10:41:38;;;;;;;19.98;5.80;;;28.60;97.60;;;;;;5013727;28;20300;-68
2022/08/14 10:44:07;;;;;;;11.90;4.80;;;28.70;97.50;;;;;;5014158;28;20279;-68
2022/08/14 10:46:43;;;;;;;5.10;4.70;;;28.70;97.30;;;;;;5013806;28;20267;-68
2022/08/14 10:49:21;;;;;;;19.58;5.78;;;28.80;97.10;;;;;;5013984;28;20256;-68
2022/08/14 10:52:05;;;;;;;5.63;5.10;;;28.80;97.20;;;;;;5013774;28;20196;-68
2022/08/14 10:54:40;;;;;;;5.03;4.70;;;28.90;96.90;;;;;;5014227;28;20197;-68
2022/08/14 10:57:18;;;;;;;7.15;4.78;;;28.90;97.20;;;;;;5013529;28;20193;-68
2022/08/14 10:59:49;;;;;;;10.52;4.95;;;28.90;97.30;;;;;;5013585;28;20672;-68
2022/08/14 11:02:21;;;;;;;5.72;4.78;;;28.80;97.10;;;;;;5013822;28;20197;-68
2022/08/14 11:05:06;;;;;;;6.65;4.38;;;28.80;97.10;;;;;;5013579;28;20229;-68
2022/08/14 11:07:35;;;;;;;5.07;4.60;;;28.90;97.00;;;;;;5013700;28;20244;-68
2022/08/14 11:10:07;;;;;;;5.05;4.50;;;28.90;97.00;;;;;;5013324;28;20827;-68
2022/08/14 11:12:45;;;;;;;4.75;3.95;;;29.00;97.00;;;;;;5013758;28;20198;-68
2022/08/14 11:15:12;;;;;;;5.40;4.38;;;29.00;96.30;;;;;;5013643;28;20564;-68
2022/08/14 11:17:39;;;;;;;11.35;4.38;;;29.10;95.70;;;;;;5013669;28;20587;-68
2022/08/14 11:20:09;;;;;;;4.30;3.90;;;29.10;95.30;;;;;;5013260;28;20228;-68
2022/08/14 11:22:40;;;;;;;5.47;3.70;;;29.20;95.30;;;;;;5010402;28;20224;-68
2022/08/14 11:25:10;;;;;;;4.97;4.13;;;29.30;95.00;;;;;;5010366;28;20241;-68
2022/08/14 11:27:39;;;;;;;4.20;3.80;;;29.40;94.40;;;;;;5010207;28;20213;-68
2022/08/14 11:30:09;;;;;;;4.85;4.03;;;29.50;94.30;;;;;;5010085;28;20205;-68
2022/08/14 11:32:38;;;;;;;4.65;4.05;;;29.60;94.00;;;;;;5010422;28;20213;-68
2022/08/14 11:35:06;;;;;;;3.65;3.40;;;29.60;93.90;;;;;;5010409;28;20216;-68
2022/08/14 11:37:33;;;;;;;4.53;4.18;;;29.70;93.80;;;;;;5010696;28;20213;-69
2022/08/14 11:40:02;;;;;;;5.03;3.90;;;29.70;93.80;;;;;;5010184;28;20212;-69
2022/08/14 11:42:31;;;;;;;4.25;3.80;;;29.70;93.40;;;;;;5009573;28;20681;-69
2022/08/14 11:44:59;;;;;;;4.20;3.85;;;29.80;93.40;;;;;;5009809;28;20229;-69
2022/08/14 11:47:26;;;;;;;6.85;3.95;;;29.80;93.20;;;;;;5009962;28;20205;-69
2022/08/14 11:49:53;;;;;;;6.10;4.15;;;29.80;93.30;;;;;;5009368;28;20689;-69
2022/08/14 11:52:20;;;;;;;10.90;4.30;;;29.90;93.00;;;;;;5009746;28;20233;-68
2022/08/14 11:54:57;;;;;;;20.85;5.05;;;29.90;93.20;;;;;;5010098;28;20206;-69
2022/08/14 11:57:25;;;;;;;4.95;3.70;;;30.10;92.70;;;;;;5009390;28;20644;-69
2022/08/14 12:00:01;;;;;;;7.90;4.22;;;30.10;92.80;;;;;;5009488;28;20244;-69
2022/08/14 12:02:28;;;;;;;22.40;5.80;;;30.00;92.90;;;;;;4998671;28;20313;-68
2022/08/14 12:04:54;;;;;;;11.35;4.50;;;30.00;92.70;;;;;;4989579;28;20244;-69
2022/08/14 12:07:21;;;;;;;4.63;4.15;;;29.90;92.80;;;;;;4990168;28;20217;-69
2022/08/14 12:09:54;;;;;;;5.38;3.67;;;29.90;92.60;;;;;;4989620;28;20452;-69
2022/08/14 12:12:23;;;;;;;9.68;4.50;;;29.80;92.80;;;;;;4989886;28;20195;-69
2022/08/14 12:14:55;;;;;;;4.63;4.20;;;29.90;92.30;;;;;;4989948;28;20210;-69
2022/08/14 12:17:24;;;;;;;4.40;4.00;;;29.90;92.10;;;;;;4990055;28;20202;-69
2022/08/14 12:19:53;;;;;;;4.47;4.07;;;29.80;92.20;;;;;;5006064;28;20627;-69
2022/08/14 12:22:32;;;;;;;4.88;4.15;;;29.80;92.20;;;;;;5009606;28;20209;-68
2022/08/14 12:24:58;;;;;;;6.70;4.30;;;29.70;92.20;;;;;;5009215;28;20232;-69
2022/08/14 12:27:48;;;;;;;4.20;3.80;;;29.70;92.50;;;;;;5009222;28;20219;-69
2022/08/14 12:30:27;;;;;;;15.77;5.05;;;29.70;92.60;;;;;;5008943;28;20209;-69
2022/08/14 12:32:55;;;;;;;5.25;4.20;;;29.80;92.30;;;;;;5008816;28;20221;-69
2022/08/14 12:35:23;;;;;;;6.60;4.25;;;29.80;92.30;;;;;;5009258;28;20219;-68
2022/08/14 12:37:51;;;;;;;5.43;4.38;;;29.90;92.30;;;;;;5008775;28;20657;-68
2022/08/14 12:40:21;;;;;;;4.45;4.07;;;30.00;92.00;;;;;;5008551;28;20201;-69
2022/08/14 12:42:52;;;;;;;5.75;4.03;;;30.00;91.70;;;;;;5009285;28;20205;-69
2022/08/14 12:45:31;;;;;;;4.95;4.10;;;30.00;91.50;;;;;;5008669;28;20692;-69
2022/08/14 12:48:01;;;;;;;5.25;4.05;;;30.20;90.60;;;;;;5009001;28;20284;-68
2022/08/14 12:50:36;;;;;;;4.57;4.20;;;30.30;90.10;;;;;;5009236;28;20236;-69
2022/08/14 12:53:03;;;;;;;4.03;3.65;;;30.40;90.10;;;;;;5009186;28;20263;-69
2022/08/14 12:55:34;;;;;;;5.35;4.22;;;30.50;88.60;;;;;;5008977;28;20210;-69
2022/08/14 12:58:04;;;;;;;4.22;3.75;;;30.50;89.40;;;;;;5008808;28;20202;-69
2022/08/14 13:00:33;;;;;;;4.00;3.60;;;30.60;87.80;;;;;;5008529;28;20245;-69
2022/08/14 13:03:03;;;;;;;7.07;3.63;;;30.60;89.40;;;;;;5008393;28;20296;-69
2022/08/14 13:05:34;;;;;;;5.05;4.03;;;30.60;88.50;;;;;;5008448;28;20229;-68
2022/08/14 13:08:04;;;;;;;10.07;4.00;;;30.60;88.70;;;;;;5008537;28;20225;-68
2022/08/14 13:10:34;;;;;;;7.28;3.97;;;30.60;88.20;;;;;;5008162;28;20313;-68
2022/08/14 13:13:02;;;;;;;4.72;3.90;;;30.60;88.90;;;;;;5008388;28;20573;-68